Platteville, WI

7:36 AM CST on January 20, 2017 (GMT -0600)
Platteville Municipal

Weather History for KPVB - February, 2013

Change the Weather History Date:

Tuesday, February 19, 2013

  Actual Average (KDBQ) Record (KDBQ)
Temperature  
Mean Temperature 10 °F -  
Max Temperature 15 °F 32 °F 63 °F (1930)
Min Temperature 5 °F 17 °F -13 °F (1979)
Degree Days  
Heating Degree Days 55    
Moisture  
Dew Point 3 °F    
Average Humidity 73    
Maximum Humidity 86    
Minimum Humidity 66    
Precipitation  
Precipitation 0.00 in - - ()
Sea Level Pressure  
Sea Level Pressure 29.94 in    
Wind  
Wind Speed 22 mph (West)    
Max Wind Speed 33 mph    
Max Gust Speed 41 mph    
Visibility 7 miles    
Events      
Averages and records for this station are not official NWS values.
T = Trace of Precipitation, MM = Missing Value Source: NWS Daily Summary

Daily Weather History Graph

Daily Weather History Graph

Search for Another Location

Airport or City:

Trip Planner

Search our weather history database for the weather conditions in past years. The results will help you decide how hot, cold, wet, or windy it might be!

Date:

Astronomy

Feb. 19, 2013 Rise Set
Actual Time 6:52 AM CST 5:39 PM CST
Civil Twilight 6:23 AM CST 6:07 PM CST
Nautical Twilight 5:51 AM CST 6:40 PM CST
Astronomical Twilight 5:18 AM CST 7:13 PM CST
Moon 12:06 PM CST (2/19) 2:28 AM CST (2/19)
Length of Visible Light 11h 44m
Length of Day
10h 46m
Waxing Gibbous, 67% of the Moon is Illuminated
Feb 19
Waxing Gibbous
Feb 25
Full
Mar 4
Last Quarter
Mar 11
New
Mar 19
First Quarter

Hourly Weather History & Observations

Time (CST) Temp. Windchill Dew Point Humidity Pressure Visibility Wind Dir Wind Speed Gust Speed Precip Events Conditions
12:15 AM 15.8 °F -3.1 °F 10.4 °F 79% 29.68 in 10.0 mi West 25.3 mph 31.1 mph N/A   Overcast
12:35 AM 14.0 °F -5.1 °F 10.4 °F 86% 29.68 in 10.0 mi West 24.2 mph 34.5 mph N/A   Overcast
12:55 AM 14.0 °F -6.5 °F 8.6 °F 79% 29.69 in 10.0 mi West 28.8 mph 36.8 mph N/A   Overcast
1:15 AM 14.0 °F -7.1 °F 8.6 °F 79% 29.69 in 7.0 mi West 31.1 mph 35.7 mph N/A   Overcast
1:35 AM 14.0 °F -5.5 °F 10.4 °F 86% 29.70 in 4.0 mi West 25.3 mph 32.2 mph N/A   Overcast
1:55 AM 12.2 °F -5.8 °F 8.6 °F 85% 29.71 in 7.0 mi West 19.6 mph 36.8 mph N/A   Overcast
2:15 AM 12.2 °F -5.8 °F 6.8 °F 79% 29.72 in 4.0 mi West 19.6 mph 29.9 mph N/A   Overcast
2:35 AM 12.2 °F -7.5 °F 6.8 °F 79% 29.72 in 4.0 mi West 24.2 mph 33.4 mph N/A   Overcast
2:55 AM 12.2 °F -7.5 °F 5.0 °F 73% 29.72 in 3.0 mi West 24.2 mph 41.4 mph N/A   Overcast
3:15 AM 12.2 °F -7.1 °F 6.8 °F 79% 29.73 in 4.0 mi West 23.0 mph 31.1 mph N/A   Overcast
3:35 AM 12.2 °F -7.9 °F 5.0 °F 73% 29.74 in 2.0 mi West 25.3 mph 35.7 mph N/A   Overcast
3:55 AM 10.4 °F -9.9 °F 5.0 °F 79% 29.74 in 2.0 mi West 24.2 mph 32.2 mph N/A   Overcast
4:15 AM 10.4 °F -9.1 °F 5.0 °F 79% 29.75 in 3.0 mi West 21.9 mph 31.1 mph N/A   Overcast
4:35 AM 10.4 °F -8.6 °F 5.0 °F 79% 29.76 in 4.0 mi West 20.7 mph 27.6 mph N/A   Overcast
4:55 AM 10.4 °F -9.5 °F 5.0 °F 79% 29.77 in 2.5 mi West 23.0 mph 32.2 mph N/A   Overcast
5:15 AM 10.4 °F -9.1 °F 3.2 °F 73% 29.78 in 4.0 mi West 21.9 mph 31.1 mph N/A   Overcast
5:35 AM 10.4 °F -8.6 °F 3.2 °F 73% 29.79 in 2.5 mi West 20.7 mph 31.1 mph N/A   Overcast
5:55 AM 8.6 °F -11.4 °F 3.2 °F 79% 29.80 in 1.2 mi West 21.9 mph 28.8 mph N/A   Overcast
6:15 AM 8.6 °F -11.4 °F 3.2 °F 79% 29.80 in 1.8 mi West 21.9 mph 29.9 mph N/A   Overcast
6:35 AM 8.6 °F -11.4 °F 3.2 °F 79% 29.81 in 1.2 mi West 21.9 mph 31.1 mph N/A   Overcast
6:55 AM 8.6 °F -11.4 °F 3.2 °F 79% 29.82 in 0.8 mi West 21.9 mph 29.9 mph N/A   Overcast
7:15 AM 8.6 °F -9.5 °F 1.4 °F 73% 29.83 in 1.5 mi West 17.3 mph 28.8 mph N/A   Overcast
7:35 AM 6.8 °F -12.9 °F 1.4 °F 79% 29.84 in 1.2 mi West 19.6 mph 31.1 mph N/A   Overcast
7:55 AM 6.8 °F -11.3 °F 1.4 °F 79% 29.85 in 0.8 mi West 16.1 mph 31.1 mph N/A   Overcast
8:15 AM 8.6 °F -10.5 °F 1.4 °F 73% 29.86 in 4.0 mi West 19.6 mph 32.2 mph N/A   Overcast
8:35 AM 8.6 °F -9.5 °F 1.4 °F 73% 29.87 in 5.0 mi West 17.3 mph 28.8 mph N/A   Overcast
8:55 AM 8.6 °F -11.4 °F 1.4 °F 73% 29.88 in 5.0 mi West 21.9 mph 34.5 mph N/A   Overcast
9:15 AM 8.6 °F -10.0 °F 1.4 °F 73% 29.89 in 10.0 mi West 18.4 mph 28.8 mph N/A   Overcast
9:35 AM 8.6 °F -10.0 °F 1.4 °F 73% 29.89 in 10.0 mi WNW 18.4 mph 26.5 mph N/A   Overcast
9:55 AM 8.6 °F -13.1 °F 1.4 °F 73% 29.90 in 7.0 mi West 26.5 mph 36.8 mph N/A   Overcast
10:15 AM 8.6 °F -12.3 °F 1.4 °F 73% 29.91 in 7.0 mi West 24.2 mph 31.1 mph N/A   Overcast
10:35 AM 10.4 °F -8.2 °F 1.4 °F 67% 29.92 in 10.0 mi West 19.6 mph 28.8 mph N/A   Overcast
10:55 AM 10.4 °F -9.1 °F 3.2 °F 73% 29.92 in 10.0 mi West 21.9 mph 27.6 mph N/A   Overcast
11:15 AM 10.4 °F -11.0 °F 3.2 °F 73% 29.94 in 10.0 mi West 27.6 mph 34.5 mph N/A   Overcast
11:35 AM 10.4 °F -9.1 °F 3.2 °F 73% 29.94 in 5.0 mi West 21.9 mph 31.1 mph N/A   Overcast
11:55 AM 10.4 °F -10.7 °F 3.2 °F 73% 29.95 in 4.0 mi West 26.5 mph 35.7 mph N/A   Overcast
12:15 PM 10.4 °F -11.0 °F 3.2 °F 73% 29.96 in 7.0 mi West 27.6 mph 33.4 mph N/A   Overcast
12:35 PM 10.4 °F -10.3 °F 3.2 °F 73% 29.96 in 7.0 mi West 25.3 mph 38.0 mph N/A   Overcast
12:55 PM 12.2 °F -7.1 °F 3.2 °F 67% 29.97 in 10.0 mi West 23.0 mph 35.7 mph N/A   Overcast
1:15 PM 12.2 °F -7.1 °F 3.2 °F 67% 29.97 in 10.0 mi West 23.0 mph 32.2 mph N/A   Overcast
1:35 PM 12.2 °F -8.2 °F 3.2 °F 67% 29.97 in 10.0 mi West 26.5 mph 35.7 mph N/A   Overcast
1:55 PM 12.2 °F -8.9 °F 3.2 °F 67% 29.98 in 10.0 mi West 28.8 mph 35.7 mph N/A   Mostly Cloudy
2:15 PM 12.2 °F -7.9 °F 3.2 °F 67% 29.99 in 10.0 mi West 25.3 mph 34.5 mph N/A   Overcast
2:35 PM 12.2 °F -10.2 °F 3.2 °F 67% 30.00 in 10.0 mi West 33.4 mph 40.3 mph N/A   Overcast
3:15 PM 12.2 °F -5.8 °F 3.2 °F 67% 30.01 in 10.0 mi West 19.6 mph 28.8 mph N/A   Mostly Cloudy
3:35 PM 12.2 °F -5.8 °F 3.2 °F 67% 30.02 in 10.0 mi WNW 19.6 mph 26.5 mph N/A   Scattered Clouds
3:55 PM 12.2 °F -5.3 °F 3.2 °F 67% 30.04 in 10.0 mi West 18.4 mph 27.6 mph N/A   Mostly Cloudy
4:15 PM 12.2 °F -4.8 °F 3.2 °F 67% 30.04 in 10.0 mi West 17.3 mph 25.3 mph N/A   Mostly Cloudy
4:35 PM 10.4 °F -8.6 °F 1.4 °F 67% 30.05 in 10.0 mi West 20.7 mph 28.8 mph N/A   Mostly Cloudy
4:55 PM 10.4 °F -7.7 °F 1.4 °F 67% 30.07 in 10.0 mi West 18.4 mph 25.3 mph N/A   Scattered Clouds
5:15 PM 10.4 °F -6.0 °F 1.4 °F 67% 30.07 in 10.0 mi WNW 15.0 mph 27.6 mph N/A   Clear
6:35 PM 8.6 °F -9.5 °F 1.4 °F 73% 30.12 in 10.0 mi West 17.3 mph 21.9 mph N/A   Scattered Clouds
6:55 PM 8.6 °F -9.5 °F 1.4 °F 73% 30.12 in 10.0 mi WNW 17.3 mph - N/A   Clear
7:15 PM 8.6 °F -8.3 °F -0.4 °F 67% 30.13 in 10.0 mi WNW 15.0 mph 21.9 mph N/A   Clear
7:35 PM 8.6 °F -7.0 °F -0.4 °F 67% 30.14 in 10.0 mi WNW 12.7 mph - N/A   Clear
7:55 PM 8.6 °F -8.3 °F -0.4 °F 67% 30.15 in 10.0 mi WNW 15.0 mph - N/A   Clear
8:15 PM 8.6 °F -7.0 °F -0.4 °F 67% 30.16 in 10.0 mi WNW 12.7 mph 19.6 mph N/A   Clear
8:35 PM 6.8 °F -8.6 °F -0.4 °F 72% 30.17 in 10.0 mi WNW 11.5 mph - N/A   Clear
8:55 PM 6.8 °F -8.6 °F -0.4 °F 72% 30.18 in 10.0 mi WNW 11.5 mph - N/A   Clear
9:15 PM 6.8 °F -9.3 °F -0.4 °F 72% 30.19 in 10.0 mi WNW 12.7 mph - N/A   Clear
9:35 PM 5.0 °F -10.0 °F -0.4 °F 78% 30.19 in 10.0 mi WNW 10.4 mph - N/A   Clear
9:55 PM 5.0 °F -12.3 °F -2.2 °F 72% 30.20 in 10.0 mi WNW 13.8 mph - N/A   Clear
10:15 PM 5.0 °F -10.8 °F -2.2 °F 72% 30.21 in 10.0 mi WNW 11.5 mph - N/A   Clear
10:35 PM 5.0 °F -10.0 °F -2.2 °F 72% 30.21 in 10.0 mi WNW 10.4 mph - N/A   Clear
10:55 PM 5.0 °F -10.0 °F -2.2 °F 72% 30.21 in 10.0 mi WNW 10.4 mph - N/A   Clear
11:15 PM 5.0 °F -8.1 °F -2.2 °F 72% 30.22 in 10.0 mi WNW 8.1 mph - N/A   Clear
11:35 PM 5.0 °F -9.1 °F -4.0 °F 66% 30.23 in 10.0 mi West 9.2 mph - N/A   Clear
11:55 PM 5.0 °F -9.1 °F -4.0 °F 66% 30.25 in 10.0 mi West 9.2 mph - N/A   Clear